Time;durP1;ratioP1;P1;durP2;ratioP2;P2;SDS_P1;SDS_P2;PMS_P1;PMS_P2;Temp;Humidity;BMP_temperature;BMP_pressure;BME280_temperature;BME280_humidity;BME280_pressure;Samples;Min_cycle;Max_cycle;Signal;HPM_P1;HPM_P2
2022/01/13 00:01:56;;;;;;;61.17;21.77;;;2.70;99.90;;;;;;5060459;28;20547;-54
2022/01/13 00:04:23;;;;;;;65.53;21.40;;;2.70;99.90;;;;;;5052004;28;20202;-55
2022/01/13 00:06:50;;;;;;;72.13;20.03;;;2.80;99.90;;;;;;5055777;28;20199;-54
2022/01/13 00:09:18;;;;;;;58.60;19.10;;;2.70;99.90;;;;;;5054911;28;20375;-57
2022/01/13 00:11:49;;;;;;;54.23;19.33;;;2.70;99.90;;;;;;5054366;28;20206;-55
2022/01/13 00:19:47;;;;;;;53.50;17.90;;;2.60;99.90;;;;;;5053977;28;20778;-57
2022/01/13 00:24:55;;;;;;;47.40;17.00;;;2.80;99.90;;;;;;5053528;28;20276;-56
2022/01/13 00:27:24;;;;;;;43.13;15.90;;;2.60;99.90;;;;;;5055356;28;20312;-57
2022/01/13 00:29:54;;;;;;;34.10;14.40;;;2.70;99.90;;;;;;5058873;28;20322;-58
2022/01/13 00:32:23;;;;;;;47.33;16.13;;;2.60;99.90;;;;;;5056794;28;20219;-58
2022/01/13 00:34:50;;;;;;;39.97;14.67;;;2.70;99.90;;;;;;5054227;28;20199;-58
2022/01/13 00:37:17;;;;;;;34.83;14.90;;;2.70;99.90;;;;;;5054479;28;20203;-56
2022/01/13 00:39:44;;;;;;;52.40;14.47;;;2.80;99.90;;;;;;5054078;28;20788;-58
2022/01/13 00:42:11;;;;;;;44.10;15.17;;;2.70;99.90;;;;;;5051790;28;20259;-56
2022/01/13 00:44:38;;;;;;;38.70;14.03;;;2.60;99.90;;;;;;5053121;28;20223;-55
2022/01/13 00:47:09;;;;;;;39.73;14.33;;;2.60;99.90;;;;;;5050322;28;20199;-59
2022/01/13 00:49:36;;;;;;;37.40;14.77;;;2.60;99.90;;;;;;5052784;28;20203;-58
2022/01/13 00:52:04;;;;;;;41.23;15.67;;;2.60;99.90;;;;;;5056100;28;20298;-57
2022/01/13 00:54:33;;;;;;;48.83;15.83;;;2.60;99.90;;;;;;5053611;28;20265;-56
2022/01/13 00:57:00;;;;;;;41.40;16.07;;;2.60;99.90;;;;;;5053585;28;20195;-55
2022/01/13 00:59:27;;;;;;;50.07;16.17;;;2.60;99.90;;;;;;5056123;28;20238;-57
2022/01/13 01:01:55;;;;;;;47.30;15.67;;;2.70;99.90;;;;;;5053712;28;20228;-57
2022/01/13 01:04:26;;;;;;;44.83;16.00;;;2.70;99.90;;;;;;5054186;28;20679;-56
2022/01/13 01:06:53;;;;;;;38.93;15.50;;;2.60;99.90;;;;;;5053773;28;20246;-56
2022/01/13 01:09:31;;;;;;;51.53;14.83;;;2.60;99.90;;;;;;5057057;28;20306;-56
2022/01/13 01:11:58;;;;;;;43.13;16.23;;;2.60;99.90;;;;;;5053606;28;20259;-57
2022/01/13 01:14:26;;;;;;;49.47;15.90;;;2.50;99.90;;;;;;5050258;28;21284;-56
2022/01/13 01:16:53;;;;;;;43.73;14.77;;;2.50;99.90;;;;;;5050990;28;20203;-57
2022/01/13 01:19:26;;;;;;;45.43;16.00;;;2.50;99.90;;;;;;5049156;28;20218;-57
2022/01/13 01:22:18;;;;;;;46.47;15.70;;;2.50;99.90;;;;;;5053328;28;20303;-57
2022/01/13 01:25:31;;;;;;;47.33;16.13;;;2.60;99.90;;;;;;5050068;28;20203;-54
2022/01/13 01:27:52;;;;;;;42.33;16.27;;;2.60;99.90;;;;;;5064597;28;20227;-58
2022/01/13 01:32:53;;;;;;;45.67;17.73;;;2.60;99.90;;;;;;5052593;28;20322;-57
2022/01/13 01:35:25;;;;;;;58.50;18.27;;;2.60;99.90;;;;;;5053049;28;20214;-56
2022/01/13 01:37:52;;;;;;;46.83;16.70;;;2.70;99.90;;;;;;5058303;28;20729;-57
2022/01/13 01:40:20;;;;;;;50.17;16.63;;;2.80;99.90;;;;;;5057156;28;20306;-57
2022/01/13 01:42:47;;;;;;;52.73;16.20;;;2.80;99.90;;;;;;5055591;28;20223;-56
2022/01/13 01:45:16;;;;;;;57.47;17.27;;;2.70;99.90;;;;;;5058924;28;20207;-57
2022/01/13 01:47:44;;;;;;;70.07;17.40;;;2.60;99.90;;;;;;5054872;28;20655;-55
2022/01/13 01:50:18;;;;;;;57.27;16.67;;;2.60;99.90;;;;;;5058702;28;20284;-55
2022/01/13 01:52:47;;;;;;;65.80;17.27;;;2.60;99.90;;;;;;5055793;28;20200;-54
2022/01/13 01:55:15;;;;;;;49.50;18.93;;;2.50;99.90;;;;;;5056072;28;20284;-54
2022/01/13 01:57:44;;;;;;;62.37;17.50;;;2.60;99.90;;;;;;5055493;28;20291;-55
2022/01/13 02:00:14;;;;;;;73.17;20.10;;;2.60;99.90;;;;;;5055117;28;20236;-56
2022/01/13 02:02:43;;;;;;;75.23;20.57;;;2.70;99.90;;;;;;5057172;28;20242;-57
2022/01/13 02:05:11;;;;;;;68.53;19.33;;;2.70;99.90;;;;;;5056069;28;20294;-56
2022/01/13 02:07:39;;;;;;;72.53;19.07;;;2.70;99.90;;;;;;5052448;28;20227;-55
2022/01/13 02:10:07;;;;;;;59.90;17.73;;;2.70;99.90;;;;;;5057068;28;20318;-57
2022/01/13 02:17:41;;;;;;;59.20;17.97;;;2.80;99.90;;;;;;5054712;28;20222;-67
2022/01/13 02:20:11;;;;;;;61.27;19.10;;;2.70;99.90;;;;;;5053861;28;20294;-58
2022/01/13 02:22:38;;;;;;;59.50;19.07;;;2.70;99.90;;;;;;5072460;28;20636;-57
2022/01/13 02:25:05;;;;;;;57.43;19.10;;;2.80;99.90;;;;;;5037776;28;20323;-56
2022/01/13 02:27:32;;;;;;;61.90;19.10;;;2.80;99.90;;;;;;5052836;28;20207;-55
2022/01/13 02:29:59;;;;;;;77.20;20.17;;;2.90;99.90;;;;;;5041678;28;20722;-58
2022/01/13 02:32:26;;;;;;;58.23;18.70;;;2.80;99.90;;;;;;5057267;28;20203;-56
2022/01/13 02:34:53;;;;;;;62.73;20.17;;;2.70;99.90;;;;;;5053341;28;20691;-60
2022/01/13 02:37:20;;;;;;;78.90;19.03;;;2.70;99.90;;;;;;5048772;28;20286;-57
2022/01/13 02:39:47;;;;;;;60.00;17.97;;;2.80;99.90;;;;;;5053495;28;20264;-58
2022/01/13 02:42:14;;;;;;;72.90;18.53;;;2.70;99.90;;;;;;5053736;28;20614;-58
2022/01/13 02:45:15;;;;;;;58.60;19.20;;;2.80;99.90;;;;;;5053237;28;20199;-56
2022/01/13 02:50:11;;;;;;;50.87;18.70;;;2.70;99.90;;;;;;5054861;28;20249;-57
2022/01/13 02:52:39;;;;;;;58.83;18.60;;;2.80;99.90;;;;;;5059591;28;20199;-55
2022/01/13 02:55:06;;;;;;;52.90;17.80;;;2.70;99.90;;;;;;5059516;28;20203;-58
2022/01/13 02:57:34;;;;;;;59.87;18.60;;;2.90;99.90;;;;;;5057243;28;20199;-57
2022/01/13 03:00:00;;;;;;;54.33;17.27;;;3.00;99.90;;;;;;5055585;28;20201;-58
2022/01/13 03:02:30;;;;;;;58.63;18.20;;;2.80;99.90;;;;;;5055143;28;20306;-56
2022/01/13 03:04:58;;;;;;;62.30;18.27;;;2.80;99.90;;;;;;5054207;28;20192;-56
2022/01/13 03:07:26;;;;;;;52.63;18.17;;;2.70;99.90;;;;;;5050913;28;20241;-57
2022/01/13 03:09:53;;;;;;;49.63;17.63;;;2.90;99.90;;;;;;5054078;28;20306;-58
2022/01/13 03:12:20;;;;;;;67.70;19.40;;;2.90;99.90;;;;;;5056075;28;20212;-57
2022/01/13 03:14:47;;;;;;;59.30;18.17;;;2.80;99.90;;;;;;5054239;28;20297;-57
2022/01/13 03:17:14;;;;;;;64.67;18.83;;;2.80;99.90;;;;;;5057077;28;21176;-58
2022/01/13 03:19:41;;;;;;;59.73;17.53;;;2.90;99.90;;;;;;5050198;28;20264;-59
2022/01/13 03:22:08;;;;;;;64.97;18.10;;;2.80;99.90;;;;;;5057583;28;20207;-58
2022/01/13 03:24:34;;;;;;;57.63;16.63;;;2.80;99.90;;;;;;5036619;28;20264;-58
2022/01/13 03:27:03;;;;;;;65.93;17.03;;;2.80;99.90;;;;;;5055712;28;20199;-57
2022/01/13 03:29:30;;;;;;;73.70;18.80;;;2.70;99.90;;;;;;5060048;28;21558;-57
2022/01/13 03:31:57;;;;;;;52.97;16.80;;;2.70;99.90;;;;;;5055048;28;20211;-56
2022/01/13 03:34:24;;;;;;;64.63;18.53;;;2.80;99.90;;;;;;5050574;28;20303;-57
2022/01/13 03:36:52;;;;;;;70.27;18.20;;;2.80;99.90;;;;;;5056856;28;20723;-57
2022/01/13 03:39:19;;;;;;;56.73;18.20;;;2.70;99.90;;;;;;5056588;28;20204;-58
2022/01/13 03:41:46;;;;;;;56.07;17.47;;;2.90;99.90;;;;;;5054980;28;20305;-58
2022/01/13 03:44:27;;;;;;;55.53;16.97;;;2.90;99.90;;;;;;5050347;28;20229;-56
2022/01/13 03:46:56;;;;;;;67.20;17.77;;;2.70;99.90;;;;;;5052100;28;20346;-57
2022/01/13 03:49:23;;;;;;;47.23;15.63;;;2.80;99.90;;;;;;5051061;28;20246;-59
2022/01/13 03:51:58;;;;;;;39.53;16.00;;;2.80;99.90;;;;;;5053412;28;20232;-58
2022/01/13 03:54:34;;;;;;;67.17;17.53;;;2.80;99.90;;;;;;5049417;28;20209;-57
2022/01/13 03:57:23;;;;;;;61.67;16.67;;;2.70;99.90;;;;;;5052029;28;20303;-61
2022/01/13 04:00:29;;;;;;;55.43;15.30;;;2.60;99.90;;;;;;5052210;28;20633;-55
2022/01/13 04:02:56;;;;;;;56.27;15.40;;;2.60;99.90;;;;;;5052997;28;20302;-55
2022/01/13 04:05:25;;;;;;;46.87;15.43;;;2.60;99.90;;;;;;5049218;28;20214;-54
2022/01/13 04:07:52;;;;;;;52.13;16.93;;;2.60;99.90;;;;;;5049334;28;20711;-56
2022/01/13 04:10:44;;;;;;;40.23;14.67;;;2.70;99.90;;;;;;5053396;28;20301;-56
2022/01/13 04:13:22;;;;;;;50.90;15.27;;;2.60;99.90;;;;;;5049295;28;20701;-57
2022/01/13 04:15:50;;;;;;;46.90;14.63;;;2.50;99.90;;;;;;5050034;28;20286;-56
2022/01/13 04:18:17;;;;;;;48.30;14.40;;;2.40;99.90;;;;;;5049895;28;20397;-54
2022/01/13 04:20:44;;;;;;;49.03;16.53;;;2.50;99.90;;;;;;5052057;28;21087;-55
2022/01/13 04:23:12;;;;;;;51.23;16.03;;;2.40;99.90;;;;;;5051241;28;20668;-54
2022/01/13 04:25:42;;;;;;;48.60;16.03;;;2.40;99.90;;;;;;5051284;28;20280;-55
2022/01/13 04:28:09;;;;;;;44.37;15.30;;;2.40;99.90;;;;;;5050244;28;20219;-57
2022/01/13 04:30:47;;;;;;;49.93;14.13;;;2.40;99.90;;;;;;5054551;28;20203;-57
2022/01/13 04:33:15;;;;;;;40.07;13.90;;;2.50;99.90;;;;;;5051530;28;20195;-57
2022/01/13 04:35:42;;;;;;;51.20;15.07;;;2.50;99.90;;;;;;5032384;28;20241;-56
2022/01/13 04:38:09;;;;;;;41.50;14.07;;;2.40;99.90;;;;;;5051802;28;20931;-56
2022/01/13 04:40:43;;;;;;;68.57;15.53;;;2.30;99.90;;;;;;5052109;28;20336;-57
2022/01/13 04:43:12;;;;;;;43.17;14.03;;;2.30;99.90;;;;;;5048706;28;20628;-56
2022/01/13 04:45:39;;;;;;;43.30;14.57;;;2.30;99.90;;;;;;5048473;28;20304;-55
2022/01/13 04:48:07;;;;;;;43.87;13.53;;;2.40;99.90;;;;;;5049177;28;20214;-56
2022/01/13 04:50:34;;;;;;;45.33;13.23;;;2.10;99.90;;;;;;5048583;28;20195;-56
2022/01/13 04:53:01;;;;;;;41.37;13.43;;;2.20;99.90;;;;;;5051506;28;20203;-57
2022/01/13 04:55:31;;;;;;;40.60;12.90;;;2.20;99.90;;;;;;5046931;28;20701;-57
2022/01/13 04:58:01;;;;;;;38.33;11.93;;;2.10;99.90;;;;;;5049978;28;20214;-56
2022/01/13 05:00:32;;;;;;;44.10;11.97;;;2.10;99.90;;;;;;5051546;28;20277;-55
2022/01/13 05:02:59;;;;;;;42.77;11.67;;;2.10;99.90;;;;;;5050413;28;20230;-57
2022/01/13 05:05:27;;;;;;;38.20;11.93;;;2.10;99.90;;;;;;5047300;28;20226;-56
2022/01/13 05:07:53;;;;;;;33.90;11.60;;;2.20;99.90;;;;;;5048845;28;20358;-57
2022/01/13 05:10:20;;;;;;;32.90;12.53;;;2.00;99.90;;;;;;5054733;28;20226;-58
2022/01/13 05:12:55;;;;;;;37.20;11.43;;;2.10;99.90;;;;;;5054338;28;20206;-58
2022/01/13 05:15:27;;;;;;;28.73;12.43;;;2.20;99.90;;;;;;5055733;28;20595;-55
2022/01/13 05:18:12;;;;;;;35.30;11.03;;;2.20;99.90;;;;;;5056494;28;20239;-57
2022/01/13 05:20:41;;;;;;;26.73;11.23;;;2.20;99.90;;;;;;5054152;28;20267;-56
2022/01/13 05:23:11;;;;;;;33.73;10.23;;;2.10;99.90;;;;;;5059153;28;20227;-58
2022/01/13 05:25:40;;;;;;;39.27;10.70;;;1.90;99.90;;;;;;5057024;28;20230;-58
2022/01/13 05:28:07;;;;;;;28.13;10.83;;;1.90;99.90;;;;;;5053947;28;20302;-59
2022/01/13 05:30:34;;;;;;;23.00;10.60;;;1.80;99.90;;;;;;5056360;28;20272;-58
2022/01/13 05:33:03;;;;;;;26.33;9.73;;;1.90;99.90;;;;;;5056606;28;20300;-58
2022/01/13 05:35:30;;;;;;;34.07;11.87;;;2.00;99.90;;;;;;5070507;28;20306;-56
2022/01/13 05:37:56;;;;;;;35.90;10.77;;;2.00;99.90;;;;;;5056207;28;20808;-57
2022/01/13 05:40:23;;;;;;;24.50;11.00;;;1.90;99.90;;;;;;5056015;28;20694;-55
2022/01/13 05:42:51;;;;;;;33.63;11.57;;;2.00;99.90;;;;;;5035021;28;20304;-59
2022/01/13 05:45:20;;;;;;;32.60;11.70;;;2.10;99.90;;;;;;5035765;28;20229;-55
2022/01/13 05:47:49;;;;;;;34.27;10.70;;;2.10;99.90;;;;;;5036364;28;20752;-57
2022/01/13 05:50:20;;;;;;;32.50;12.13;;;2.00;99.90;;;;;;5035760;28;20205;-57
2022/01/13 05:52:48;;;;;;;32.30;12.90;;;2.00;99.90;;;;;;5023358;28;20208;-57
2022/01/13 05:55:17;;;;;;;33.50;12.40;;;2.00;99.90;;;;;;5037523;28;20207;-55
2022/01/13 05:57:44;;;;;;;29.27;11.13;;;2.10;99.90;;;;;;5036534;28;20235;-56
2022/01/13 06:00:14;;;;;;;43.00;12.27;;;2.10;99.90;;;;;;5036445;28;20244;-57
2022/01/13 06:02:41;;;;;;;45.10;12.80;;;2.00;99.90;;;;;;5037001;28;20226;-58
2022/01/13 06:05:09;;;;;;;28.13;12.27;;;2.00;99.90;;;;;;5033014;28;20231;-56
2022/01/13 06:07:36;;;;;;;39.00;12.30;;;2.00;99.90;;;;;;5034771;28;20728;-56
2022/01/13 06:10:05;;;;;;;39.07;13.23;;;2.00;99.90;;;;;;5021344;28;20224;-56
2022/01/13 06:12:33;;;;;;;37.30;14.67;;;2.00;99.90;;;;;;5036485;28;20215;-56
2022/01/13 06:15:02;;;;;;;38.93;14.67;;;2.10;99.90;;;;;;5036081;28;20235;-58
2022/01/13 06:17:29;;;;;;;42.47;15.07;;;2.20;99.90;;;;;;5037412;28;20245;-57
2022/01/13 06:19:58;;;;;;;46.07;14.77;;;2.30;99.90;;;;;;5035087;28;20322;-59
2022/01/13 06:22:25;;;;;;;42.53;16.13;;;2.20;99.90;;;;;;5033217;28;20342;-54
2022/01/13 06:24:55;;;;;;;52.53;15.50;;;2.20;99.90;;;;;;5032054;28;20755;-59
2022/01/13 06:27:22;;;;;;;49.37;15.93;;;2.20;99.90;;;;;;5034860;28;20295;-57
2022/01/13 06:29:50;;;;;;;62.43;16.00;;;2.30;99.90;;;;;;5021381;28;20262;-56
2022/01/13 06:32:18;;;;;;;48.77;14.93;;;2.20;99.90;;;;;;5037825;28;20205;-58
2022/01/13 06:34:45;;;;;;;46.20;15.53;;;2.20;99.90;;;;;;5036027;28;20319;-56
2022/01/13 06:37:13;;;;;;;47.30;15.80;;;2.20;99.90;;;;;;5036156;28;20613;-56
2022/01/13 06:39:40;;;;;;;42.90;15.23;;;2.20;99.90;;;;;;5034563;28;20212;-54
2022/01/13 06:42:07;;;;;;;43.20;15.63;;;2.30;99.90;;;;;;5035813;28;20232;-55
2022/01/13 06:44:34;;;;;;;50.70;14.83;;;2.30;99.90;;;;;;5036241;28;20251;-57
2022/01/13 06:47:01;;;;;;;52.93;14.40;;;2.20;99.90;;;;;;5016762;28;20234;-57
2022/01/13 06:49:28;;;;;;;55.57;14.93;;;2.20;99.90;;;;;;5035525;28;20292;-56
2022/01/13 06:51:56;;;;;;;41.37;14.03;;;2.20;99.90;;;;;;5022412;28;20243;-54
2022/01/13 06:54:23;;;;;;;56.83;16.07;;;2.20;99.90;;;;;;5036112;28;20231;-55
2022/01/13 06:56:51;;;;;;;62.50;17.53;;;2.30;99.90;;;;;;5035188;28;20240;-58
2022/01/13 06:59:20;;;;;;;69.17;17.83;;;2.30;99.90;;;;;;5036408;28;20231;-57
2022/01/13 07:01:48;;;;;;;46.20;16.33;;;2.20;99.90;;;;;;5031611;28;20766;-56
2022/01/13 07:04:16;;;;;;;53.33;16.53;;;2.20;99.90;;;;;;5035609;28;20208;-56
2022/01/13 07:06:44;;;;;;;61.10;18.80;;;2.30;99.90;;;;;;5037277;28;20322;-57
2022/01/13 07:09:17;;;;;;;68.57;18.67;;;2.40;99.90;;;;;;5019952;28;20303;-57
2022/01/13 07:11:45;;;;;;;69.83;19.47;;;2.40;99.90;;;;;;5016099;28;20668;-56
2022/01/13 07:14:12;;;;;;;71.47;19.03;;;2.30;99.90;;;;;;5035836;28;20207;-56
2022/01/13 07:16:40;;;;;;;54.50;19.23;;;2.30;99.90;;;;;;5034908;28;20996;-57
2022/01/13 07:19:10;;;;;;;62.37;18.20;;;2.50;99.90;;;;;;5034967;28;20297;-56
2022/01/13 07:21:39;;;;;;;55.83;17.93;;;2.40;99.90;;;;;;5015468;28;20220;-53
2022/01/13 07:24:06;;;;;;;61.30;19.03;;;2.30;99.90;;;;;;5037680;28;20634;-55
2022/01/13 07:26:33;;;;;;;53.40;18.80;;;2.40;99.90;;;;;;5034075;28;20196;-55
2022/01/13 07:29:01;;;;;;;67.70;21.97;;;2.40;99.90;;;;;;5035375;28;20297;-56
2022/01/13 07:31:28;;;;;;;54.30;17.87;;;2.40;99.90;;;;;;5032782;28;22054;-55
2022/01/13 07:33:55;;;;;;;49.43;16.73;;;2.40;99.90;;;;;;5034713;28;20668;-55
2022/01/13 07:36:22;;;;;;;62.07;18.53;;;2.30;99.90;;;;;;5014634;28;20613;-56
2022/01/13 07:38:49;;;;;;;62.77;17.83;;;2.40;99.90;;;;;;5037848;28;20720;-55
2022/01/13 07:41:16;;;;;;;57.47;18.37;;;2.30;99.90;;;;;;5048094;28;20754;-56
2022/01/13 07:43:47;;;;;;;45.93;17.33;;;2.40;99.90;;;;;;5076001;28;20749;-55
2022/01/13 07:46:15;;;;;;;55.20;15.03;;;2.50;99.90;;;;;;5054684;28;20207;-58
2022/01/13 07:48:42;;;;;;;51.13;15.53;;;2.40;99.90;;;;;;5055930;28;20223;-57
2022/01/13 07:51:09;;;;;;;45.60;15.30;;;2.40;99.90;;;;;;5052989;28;20207;-55
2022/01/13 07:53:36;;;;;;;40.70;13.67;;;2.40;99.90;;;;;;5055352;28;20199;-55
2022/01/13 07:56:03;;;;;;;43.07;14.13;;;2.50;99.90;;;;;;5052547;28;20306;-56
2022/01/13 07:58:30;;;;;;;42.67;14.37;;;2.40;99.90;;;;;;5054804;28;20575;-57
2022/01/13 08:00:56;;;;;;;47.47;14.93;;;2.40;99.90;;;;;;5055930;28;20249;-56
2022/01/13 08:03:23;;;;;;;37.13;13.77;;;2.40;99.90;;;;;;5056371;28;20568;-55
2022/01/13 08:05:50;;;;;;;42.60;13.97;;;2.40;99.90;;;;;;5056643;28;20211;-56
2022/01/13 08:08:24;;;;;;;31.00;10.77;;;2.50;99.90;;;;;;5056864;28;20238;-57
2022/01/13 08:10:54;;;;;;;38.50;12.23;;;2.50;99.90;;;;;;5063195;28;20200;-59
2022/01/13 08:13:21;;;;;;;31.23;11.13;;;2.40;99.90;;;;;;5058724;28;21060;-57
2022/01/13 08:15:52;;;;;;;29.67;10.83;;;2.40;99.90;;;;;;5057469;28;20261;-58
2022/01/13 08:21:04;;;;;;;37.47;9.43;;;2.40;99.90;;;;;;5058345;28;20203;-58
2022/01/13 08:23:30;;;;;;;27.80;9.47;;;2.40;99.90;;;;;;5057795;28;20310;-57
2022/01/13 08:25:57;;;;;;;25.83;9.67;;;2.40;99.90;;;;;;5058916;28;20643;-58
2022/01/13 08:28:27;;;;;;;40.33;11.23;;;2.40;99.90;;;;;;5056648;28;20629;-57
2022/01/13 08:30:57;;;;;;;28.47;10.73;;;2.40;99.90;;;;;;5056930;28;20716;-57
2022/01/13 08:33:25;;;;;;;27.60;9.03;;;2.40;99.90;;;;;;5056448;28;20382;-58
2022/01/13 08:35:54;;;;;;;24.43;9.00;;;2.50;99.90;;;;;;5054601;28;20211;-58
2022/01/13 08:38:23;;;;;;;27.77;9.30;;;2.60;99.90;;;;;;5055699;28;20265;-55
2022/01/13 08:40:53;;;;;;;21.03;9.30;;;2.60;99.90;;;;;;5056806;28;20908;-57
2022/01/13 08:43:21;;;;;;;33.17;9.03;;;2.60;99.90;;;;;;5053939;28;20270;-56
2022/01/13 08:45:48;;;;;;;34.70;9.40;;;2.60;99.90;;;;;;5053298;28;20941;-56
2022/01/13 08:48:16;;;;;;;34.53;9.93;;;2.50;99.90;;;;;;5055684;28;20210;-57
2022/01/13 08:50:43;;;;;;;18.77;8.43;;;2.60;99.90;;;;;;5052183;28;20629;-56
2022/01/13 08:53:10;;;;;;;35.83;9.70;;;2.60;99.90;;;;;;5057296;28;20207;-56
2022/01/13 08:55:37;;;;;;;22.53;9.20;;;2.60;99.90;;;;;;5055248;28;20710;-56
2022/01/13 08:58:04;;;;;;;28.10;9.27;;;2.60;99.90;;;;;;5056025;28;22923;-57
2022/01/13 09:00:32;;;;;;;22.57;8.77;;;2.60;99.90;;;;;;5056992;28;20199;-55
2022/01/13 09:03:00;;;;;;;22.07;8.40;;;2.60;99.90;;;;;;5052370;28;20656;-54
2022/01/13 09:05:27;;;;;;;31.13;8.57;;;2.50;99.90;;;;;;5055660;28;20635;-55
2022/01/13 09:07:54;;;;;;;25.93;8.80;;;2.60;99.90;;;;;;5057109;28;20199;-56
2022/01/13 09:10:21;;;;;;;23.17;8.33;;;2.50;99.90;;;;;;5055124;28;20782;-57
2022/01/13 09:12:47;;;;;;;24.93;8.23;;;2.50;99.90;;;;;;5056481;28;20207;-55
2022/01/13 09:15:17;;;;;;;27.90;9.93;;;2.50;99.90;;;;;;5062089;28;20719;-58
2022/01/13 09:17:46;;;;;;;23.80;9.13;;;2.60;99.90;;;;;;5055179;28;20199;-57
2022/01/13 09:20:15;;;;;;;26.23;8.70;;;2.50;99.90;;;;;;5052933;28;20248;-57
2022/01/13 09:22:43;;;;;;;23.53;8.83;;;2.50;99.90;;;;;;5051161;28;20730;-59
2022/01/13 09:25:11;;;;;;;22.77;8.77;;;2.50;99.90;;;;;;5052595;28;20877;-55
2022/01/13 09:27:41;;;;;;;25.40;8.67;;;2.60;99.90;;;;;;5055358;28;20203;-58
2022/01/13 09:30:10;;;;;;;18.60;8.63;;;2.60;99.90;;;;;;5055381;28;22179;-57
2022/01/13 09:32:38;;;;;;;24.20;8.97;;;2.50;99.90;;;;;;5055896;28;20211;-57
2022/01/13 09:35:06;;;;;;;23.37;8.90;;;2.50;99.90;;;;;;5053138;28;20244;-59
2022/01/13 09:37:35;;;;;;;26.03;10.07;;;2.70;99.90;;;;;;5051153;28;20849;-56
2022/01/13 09:40:05;;;;;;;23.33;9.17;;;2.60;99.90;;;;;;5054578;28;20235;-58
2022/01/13 09:42:34;;;;;;;27.90;10.00;;;2.60;99.90;;;;;;5034873;28;20232;-56
2022/01/13 09:45:04;;;;;;;23.80;9.33;;;2.70;99.90;;;;;;5032409;28;20216;-57
2022/01/13 09:47:32;;;;;;;28.43;9.97;;;2.60;99.90;;;;;;5033881;28;20212;-58
2022/01/13 09:50:04;;;;;;;24.87;10.03;;;2.70;99.90;;;;;;5034742;28;20635;-58
2022/01/13 09:52:31;;;;;;;26.53;9.50;;;2.80;99.90;;;;;;5029439;28;20197;-53
2022/01/13 09:54:58;;;;;;;32.93;9.57;;;2.60;99.90;;;;;;5032440;28;20265;-59
2022/01/13 09:57:25;;;;;;;24.37;9.57;;;2.60;99.90;;;;;;5036522;28;20276;-55
2022/01/13 09:59:54;;;;;;;22.97;8.97;;;2.80;99.90;;;;;;5040526;28;20390;-53
2022/01/13 10:02:21;;;;;;;23.30;9.93;;;2.90;99.90;;;;;;5039043;28;20252;-55
2022/01/13 10:04:50;;;;;;;26.77;9.80;;;2.90;99.90;;;;;;5035956;28;20215;-55
2022/01/13 10:07:36;;;;;;;28.83;9.20;;;2.90;99.90;;;;;;5038666;28;20208;-56
2022/01/13 10:10:24;;;;;;;22.20;9.07;;;2.80;99.90;;;;;;5040319;28;20239;-54
2022/01/13 10:13:04;;;;;;;26.83;9.63;;;2.90;99.90;;;;;;5035337;28;20289;-55
2022/01/13 10:18:42;;;;;;;23.03;9.20;;;2.70;99.90;;;;;;5039915;28;20204;-54
2022/01/13 10:21:12;;;;;;;25.17;9.70;;;2.60;99.90;;;;;;5037833;28;20203;-54
2022/01/13 10:24:06;;;;;;;23.80;9.40;;;2.70;99.90;;;;;;5036845;28;20694;-55
2022/01/13 10:26:34;;;;;;;31.13;9.57;;;2.70;99.90;;;;;;5036356;28;20271;-56
2022/01/13 10:29:03;;;;;;;21.67;10.17;;;2.60;99.90;;;;;;5036569;28;20334;-55
2022/01/13 10:32:03;;;;;;;22.57;10.47;;;2.70;99.90;;;;;;5018888;28;20275;-60
2022/01/13 10:34:32;;;;;;;26.43;11.03;;;2.70;99.90;;;;;;4981108;28;20228;-55
2022/01/13 10:37:11;;;;;;;31.70;11.07;;;2.80;99.90;;;;;;5033908;28;20276;-55
2022/01/13 10:39:56;;;;;;;35.10;11.20;;;2.70;99.90;;;;;;5035468;28;20200;-56
2022/01/13 10:45:08;;;;;;;29.73;9.57;;;2.80;99.90;;;;;;5055966;28;20200;-55
2022/01/13 10:47:36;;;;;;;29.30;10.33;;;2.80;99.90;;;;;;5056681;28;20202;-57
2022/01/13 10:50:05;;;;;;;28.40;11.13;;;2.80;99.90;;;;;;5055562;28;20303;-55
2022/01/13 10:52:33;;;;;;;34.43;12.00;;;2.80;99.90;;;;;;5057067;28;20200;-55
2022/01/13 10:55:13;;;;;;;39.80;11.47;;;2.90;99.90;;;;;;5055933;28;20223;-57
2022/01/13 10:58:01;;;;;;;31.33;11.23;;;2.90;99.90;;;;;;5058330;28;20303;-55
2022/01/13 11:00:32;;;;;;;32.93;10.80;;;2.90;99.90;;;;;;5056102;28;20349;-56
2022/01/13 11:03:01;;;;;;;27.77;10.40;;;2.90;99.90;;;;;;5056940;28;20223;-57
2022/01/13 11:05:30;;;;;;;37.50;12.00;;;2.80;99.90;;;;;;5055016;28;20228;-56
2022/01/13 11:07:57;;;;;;;35.97;12.57;;;2.90;99.90;;;;;;5054546;28;20254;-56
2022/01/13 11:10:25;;;;;;;32.30;11.47;;;2.90;99.90;;;;;;5057371;28;20288;-56
2022/01/13 11:12:56;;;;;;;37.53;12.47;;;3.00;99.90;;;;;;5054178;28;20239;-56
2022/01/13 11:15:24;;;;;;;35.90;15.53;;;3.10;99.90;;;;;;5057016;28;20322;-58
2022/01/13 11:17:57;;;;;;;43.43;12.40;;;3.30;99.90;;;;;;5056937;28;20265;-56
2022/01/13 11:20:25;;;;;;;37.07;12.77;;;3.30;99.90;;;;;;5050637;28;20291;-54
2022/01/13 11:22:54;;;;;;;29.80;11.27;;;3.20;99.90;;;;;;5055955;28;20215;-57
2022/01/13 11:25:24;;;;;;;37.90;12.67;;;3.20;99.90;;;;;;5055034;28;20196;-57
2022/01/13 11:27:52;;;;;;;31.43;12.33;;;3.20;99.90;;;;;;5053564;28;20302;-56
2022/01/13 11:30:22;;;;;;;35.77;12.93;;;3.20;99.90;;;;;;5056419;28;20257;-56
2022/01/13 11:32:50;;;;;;;25.77;11.00;;;3.10;99.90;;;;;;5053119;28;20207;-57
2022/01/13 11:35:45;;;;;;;28.57;10.67;;;3.10;99.90;;;;;;5052456;28;20309;-57
2022/01/13 11:38:14;;;;;;;35.00;13.30;;;3.10;99.90;;;;;;5055922;28;20219;-57
2022/01/13 11:40:44;;;;;;;31.80;11.73;;;3.20;99.90;;;;;;5054706;28;20285;-56
2022/01/13 11:43:46;;;;;;;35.70;13.30;;;3.20;99.90;;;;;;5055422;28;20306;-55
2022/01/13 11:46:25;;;;;;;31.43;11.93;;;3.30;99.90;;;;;;4993192;28;20604;-57
2022/01/13 11:48:54;;;;;;;31.37;11.27;;;3.50;99.90;;;;;;4990131;28;20205;-57
2022/01/13 11:51:21;;;;;;;36.87;12.73;;;3.30;99.90;;;;;;4993104;28;20241;-57
2022/01/13 11:53:59;;;;;;;34.27;11.30;;;3.30;99.90;;;;;;4994695;28;20213;-56
2022/01/13 11:56:28;;;;;;;38.93;10.33;;;3.30;99.90;;;;;;4979522;28;23158;-56
2022/01/13 11:58:56;;;;;;;29.73;12.17;;;3.20;99.90;;;;;;4994553;28;20198;-57
2022/01/13 12:01:24;;;;;;;35.37;11.43;;;3.20;99.90;;;;;;4996022;28;20248;-56
2022/01/13 12:03:56;;;;;;;38.00;11.10;;;3.30;99.90;;;;;;4978810;28;20284;-56
2022/01/13 12:06:38;;;;;;;34.47;11.50;;;3.30;99.90;;;;;;4993226;28;20230;-56
2022/01/13 12:09:11;;;;;;;31.60;11.63;;;3.40;99.90;;;;;;4993669;28;20305;-58
2022/01/13 12:11:42;;;;;;;32.13;11.43;;;3.30;99.90;;;;;;4993556;28;20668;-58
2022/01/13 12:14:24;;;;;;;34.97;11.70;;;3.30;99.90;;;;;;4994694;28;20209;-58
2022/01/13 12:17:25;;;;;;;32.37;11.50;;;3.30;99.90;;;;;;4993806;28;20212;-56
2022/01/13 12:19:59;;;;;;;30.77;10.73;;;3.30;99.90;;;;;;5011003;28;20202;-56
2022/01/13 12:22:37;;;;;;;38.27;11.63;;;3.40;99.90;;;;;;5057083;28;20195;-54
2022/01/13 12:25:10;;;;;;;30.93;11.67;;;3.40;99.90;;;;;;5058053;28;20286;-56
2022/01/13 12:27:40;;;;;;;37.67;11.53;;;3.30;99.90;;;;;;5055708;28;20717;-57
2022/01/13 12:30:11;;;;;;;38.60;11.70;;;3.40;99.90;;;;;;5059600;28;20239;-56
2022/01/13 12:32:40;;;;;;;35.80;11.63;;;3.20;99.90;;;;;;5055823;28;20624;-56
2022/01/13 12:35:10;;;;;;;35.73;12.23;;;3.30;99.90;;;;;;5052839;28;20221;-56
2022/01/13 12:37:39;;;;;;;37.97;11.53;;;3.30;99.90;;;;;;5055466;28;20230;-57
2022/01/13 12:40:25;;;;;;;39.00;11.27;;;3.40;99.90;;;;;;5037907;28;20226;-59
2022/01/13 12:42:53;;;;;;;29.97;11.17;;;3.40;99.90;;;;;;5055654;28;20615;-57
2022/01/13 12:45:29;;;;;;;34.37;11.27;;;3.40;99.90;;;;;;5054217;28;20539;-57
2022/01/13 12:48:17;;;;;;;48.63;11.60;;;3.40;99.90;;;;;;5055348;28;20200;-57
2022/01/13 12:50:46;;;;;;;35.40;11.40;;;3.50;99.90;;;;;;5054683;28;20203;-57
2022/01/13 12:53:16;;;;;;;31.53;11.60;;;3.50;99.90;;;;;;5054569;28;21166;-55
2022/01/13 12:55:53;;;;;;;35.27;11.93;;;3.60;99.90;;;;;;5054851;28;20299;-56
2022/01/13 12:58:22;;;;;;;39.67;13.23;;;3.70;99.90;;;;;;5057675;28;20286;-56
2022/01/13 13:01:05;;;;;;;25.13;11.70;;;3.70;99.90;;;;;;5057889;28;20257;-54
2022/01/13 13:03:33;;;;;;;35.50;12.73;;;3.80;99.90;;;;;;5056526;28;20576;-55
2022/01/13 13:06:07;;;;;;;36.77;12.10;;;3.90;99.90;;;;;;5054916;28;20200;-55
2022/01/13 13:08:34;;;;;;;27.20;11.00;;;3.90;99.90;;;;;;5056602;28;20229;-55
2022/01/13 13:11:01;;;;;;;28.80;11.57;;;3.70;99.90;;;;;;5056838;28;20221;-55
2022/01/13 13:13:31;;;;;;;29.67;11.63;;;3.90;99.90;;;;;;5053190;28;20215;-56
2022/01/13 13:16:06;;;;;;;32.37;11.27;;;3.90;99.90;;;;;;5054703;28;20679;-57
2022/01/13 13:18:34;;;;;;;34.27;12.43;;;3.80;99.90;;;;;;5056171;28;20229;-56
2022/01/13 13:21:03;;;;;;;32.63;12.67;;;3.80;99.90;;;;;;5056073;28;20348;-56